createdAt,value
2023-04-28T00:00:40.472Z,100034.38
2023-04-28T00:05:42.174Z,100032.22
2023-04-28T00:10:43.748Z,100033.03
2023-04-28T00:15:45.301Z,100034.03
2023-04-28T00:20:47.241Z,100026.88
2023-04-28T00:25:55.608Z,100032.13
2023-04-28T00:30:57.123Z,100038.44
2023-04-28T00:36:00.053Z,100033.22
2023-04-28T00:41:01.683Z,100024.63
2023-04-28T00:46:03.423Z,100015.22
2023-04-28T00:51:06.476Z,100004.72
2023-04-28T00:56:08.304Z,100000.63
2023-04-28T01:01:10.640Z,99985.19
2023-04-28T01:06:12.384Z,99987.13
2023-04-28T01:11:14.854Z,99984.69
2023-04-28T01:16:32.930Z,99984.06
2023-04-28T01:21:35.530Z,100001.03
2023-04-28T01:26:56.617Z,99995.34
2023-04-28T01:32:00.715Z,99999.84
2023-04-28T01:37:02.387Z,100006.53
2023-04-28T01:42:04.092Z,100010.19
2023-04-28T01:47:05.687Z,99997.53
2023-04-28T01:52:09.835Z,100008.69
2023-04-28T01:57:11.569Z,100002.50
2023-04-28T02:02:13.333Z,99980.66
2023-04-28T02:07:14.950Z,99982.28
2023-04-28T02:12:17.528Z,100005.81
2023-04-28T02:17:19.120Z,100015.03
2023-04-28T02:22:21.288Z,100005.38
2023-04-28T02:27:23.022Z,100004.16
2023-04-28T02:32:24.602Z,100004.75
2023-04-28T02:37:26.379Z,100006.66
2023-04-28T02:42:28.012Z,100013.13
2023-04-28T02:47:29.654Z,100037.84
2023-04-28T02:52:31.269Z,100037.97
2023-04-28T02:57:32.817Z,100023.03
2023-04-28T03:02:34.522Z,100017.88
2023-04-28T03:07:36.497Z,100022.69
2023-04-28T03:12:38.163Z,100014.72
2023-04-28T03:17:42.293Z,100021.03
2023-04-28T03:22:44.245Z,100009.59
2023-04-28T03:27:45.866Z,99996.81
2023-04-28T03:32:47.501Z,99987.34
2023-04-28T03:37:49.922Z,99986.84
2023-04-28T03:42:51.493Z,99981.13
2023-04-28T03:48:01.171Z,99981.94
2023-04-28T03:53:02.729Z,99967.41
2023-04-28T03:58:05.059Z,99968.81
2023-04-28T04:03:09.044Z,99967.41
2023-04-28T04:08:10.892Z,99957.84
2023-04-28T04:13:12.939Z,99961.28
2023-04-28T04:18:16.128Z,99955.75
2023-04-28T04:23:37.632Z,99957.53
2023-04-28T04:28:39.215Z,99951.63
2023-04-28T04:33:42.906Z,99935.81
2023-04-28T04:38:44.923Z,99932.69
2023-04-28T04:43:54.008Z,99936.09
2023-04-28T04:48:56.173Z,99934.75
2023-04-28T04:53:57.774Z,99935.66
2023-04-28T04:58:59.703Z,99940.69
2023-04-28T05:04:30.659Z,99941.03
2023-04-28T05:09:33.213Z,99951.09
2023-04-28T05:14:35.598Z,99962.34
2023-04-28T05:19:37.420Z,99955.34
2023-04-28T05:24:39.138Z,99952.84
2023-04-28T05:29:41.443Z,99947.81
2023-04-28T05:34:45.003Z,99941.66
2023-04-28T05:39:46.768Z,99931.09
2023-04-28T05:44:48.805Z,99933.16
2023-04-28T05:49:50.483Z,99932.22
2023-04-28T05:54:52.160Z,99923.06
2023-04-28T05:59:53.919Z,99923.34
2023-04-28T06:04:56.263Z,99926.28
2023-04-28T06:09:58.380Z,99914.06
2023-04-28T06:15:00.191Z,99907.28
2023-04-28T06:20:02.039Z,99911.41
2023-04-28T06:25:03.944Z,99912.78
2023-04-28T06:30:17.201Z,99907.81
2023-04-28T06:35:18.839Z,99906.78
2023-04-28T06:40:20.415Z,99910.66
2023-04-28T06:45:27.060Z,99901.59
2023-04-28T06:50:32.049Z,99900.25
2023-04-28T06:55:35.010Z,99903.34
2023-04-28T07:00:36.700Z,99907.03
2023-04-28T07:05:38.350Z,99910.22
2023-04-28T07:10:39.891Z,99911.41
2023-04-28T07:15:42.118Z,99921.28
2023-04-28T07:20:43.649Z,99935.28
2023-04-28T07:25:45.250Z,99935.16
2023-04-28T07:30:46.855Z,99941.34
2023-04-28T07:35:49.579Z,99946.53
2023-04-28T07:45:53.841Z,99953.34
2023-04-28T07:50:55.794Z,99955.44
2023-04-28T07:55:57.462Z,99960.78
2023-04-28T08:00:59.053Z,99968.25
2023-04-28T08:06:01.177Z,99968.88
2023-04-28T08:11:02.994Z,99969.06
2023-04-28T08:16:04.943Z,99975.75
2023-04-28T08:21:07.113Z,99978.28
2023-04-28T08:26:08.799Z,99992.06
2023-04-28T08:31:10.496Z,99993.38
2023-04-28T08:36:12.225Z,99992.59
2023-04-28T08:41:15.647Z,99999.03
2023-04-28T08:46:21.484Z,99992.91
2023-04-28T08:51:33.482Z,99998.53
2023-04-28T08:56:35.912Z,100002.63
2023-04-28T09:01:37.655Z,100000.44
2023-04-28T09:06:39.339Z,100002.09
2023-04-28T09:11:55.567Z,100004.66
2023-04-28T09:16:57.491Z,100005.13
2023-04-28T09:21:59.364Z,100004.50
2023-04-28T09:27:04.234Z,99996.47
2023-04-28T09:32:17.070Z,100005.38
2023-04-28T09:37:20.584Z,100007.66
2023-04-28T09:42:42.037Z,99999.44
2023-04-28T09:47:46.718Z,100001.66
2023-04-28T09:52:58.196Z,99983.03
2023-04-28T09:58:04.186Z,99983.84
2023-04-28T10:03:09.539Z,99984.50
2023-04-28T10:08:12.025Z,99969.75
2023-04-28T10:13:13.619Z,99974.16
2023-04-28T10:18:16.234Z,99966.88
2023-04-28T10:23:20.753Z,99976.06
2023-04-28T10:28:22.426Z,99975.53
2023-04-28T10:33:26.150Z,99975.75
2023-04-28T10:38:28.093Z,99959.59
2023-04-28T10:43:30.741Z,99954.88
2023-04-28T10:48:32.471Z,99957.72
2023-04-28T10:53:46.768Z,99951.16
2023-04-28T10:58:53.185Z,99954.31
2023-04-28T11:04:08.439Z,99950.34
2023-04-28T11:09:16.105Z,99940.56
2023-04-28T11:14:18.317Z,99931.63
2023-04-28T11:19:21.472Z,99930.81
2023-04-28T11:24:26.234Z,99907.94
2023-04-28T11:29:38.499Z,99910.09
2023-04-28T11:34:40.093Z,99917.81
2023-04-28T11:39:41.651Z,99913.47
2023-04-28T11:44:52.330Z,99909.97
2023-04-28T11:49:53.891Z,99900.22
2023-04-28T11:55:02.216Z,99892.97
2023-04-28T12:00:19.293Z,99898.53
2023-04-28T12:05:22.523Z,99905.28
2023-04-28T12:10:24.237Z,99930.22
2023-04-28T12:15:41.086Z,99942.31
2023-04-28T12:20:43.580Z,99934.56
2023-04-28T12:25:47.265Z,99936.28
2023-04-28T12:30:48.872Z,99923.13
2023-04-28T12:35:50.555Z,99921.00
2023-04-28T12:40:52.542Z,99914.91
2023-04-28T12:45:55.689Z,99911.84
2023-04-28T12:50:57.270Z,99910.91
2023-04-28T12:55:59.413Z,99921.13
2023-04-28T13:01:01.023Z,99913.25
2023-04-28T13:06:02.563Z,99919.81
2023-04-28T13:11:16.259Z,99938.03
2023-04-28T13:16:28.965Z,99941.31
2023-04-28T13:21:30.594Z,99946.75
2023-04-28T13:26:37.800Z,99948.47
2023-04-28T13:31:39.403Z,99934.03
2023-04-28T13:36:43.465Z,99934.91
2023-04-28T13:41:44.997Z,99927.09
2023-04-28T13:46:47.251Z,99938.72
2023-04-28T13:51:48.767Z,99937.44
2023-04-28T13:56:52.646Z,99923.59
2023-04-28T14:01:54.177Z,99915.13
2023-04-28T14:06:55.824Z,99917.38
2023-04-28T14:11:58.458Z,99907.41
2023-04-28T14:17:00.323Z,99903.44
2023-04-28T14:22:02.688Z,99895.81
2023-04-28T14:27:04.685Z,99894.75
2023-04-28T14:32:06.224Z,99879.16
2023-04-28T14:37:07.791Z,99874.16
2023-04-28T14:42:09.572Z,99865.03
2023-04-28T14:47:11.171Z,99849.94
2023-04-28T14:52:12.905Z,99850.97
2023-04-28T14:57:14.957Z,99834.63
2023-04-28T15:02:16.665Z,99832.22
2023-04-28T15:07:23.767Z,99837.91
2023-04-28T15:12:25.798Z,99839.28
2023-04-28T15:17:28.464Z,99838.84
2023-04-28T15:22:30.028Z,99856.72
2023-04-28T15:27:32.188Z,99843.31
2023-04-28T15:32:33.823Z,99844.25
2023-04-28T15:37:44.628Z,99861.47
2023-04-28T15:42:49.588Z,99860.72
2023-04-28T15:47:51.815Z,99861.78
2023-04-28T15:52:53.685Z,99881.97
2023-04-28T15:57:56.155Z,99883.94
2023-04-28T16:02:57.839Z,99868.97
2023-04-28T16:07:59.990Z,99865.19
2023-04-28T16:13:01.695Z,99874.28
2023-04-28T16:18:03.481Z,99870.13
2023-04-28T16:23:06.311Z,99867.50
2023-04-28T16:28:08.234Z,99877.03
2023-04-28T16:33:10.020Z,99864.88
2023-04-28T16:38:12.329Z,99858.28
2023-04-28T16:43:14.352Z,99851.44
2023-04-28T16:48:18.422Z,99856.66
2023-04-28T16:53:19.980Z,99860.22
2023-04-28T16:58:21.560Z,99853.94
2023-04-28T17:03:23.323Z,99850.03
2023-04-28T17:08:24.931Z,99853.03
2023-04-28T17:13:26.758Z,99854.97
2023-04-28T17:18:28.770Z,99851.31
2023-04-28T17:23:30.325Z,99859.09
2023-04-28T17:28:32.787Z,99851.13
2023-04-28T17:33:34.562Z,99841.47
2023-04-28T17:38:38.287Z,99855.56
2023-04-28T17:43:39.951Z,99858.34
2023-04-28T17:48:42.385Z,99850.63
2023-04-28T17:53:46.217Z,99854.69
2023-04-28T17:58:47.949Z,99847.53
2023-04-28T18:03:49.533Z,99858.09
2023-04-28T18:08:51.372Z,99859.53
2023-04-28T18:13:52.933Z,99864.00
2023-04-28T18:18:54.461Z,99864.28
2023-04-28T18:23:56.117Z,99875.59
2023-04-28T18:28:57.656Z,99878.09
2023-04-28T18:33:59.572Z,99891.81
2023-04-28T18:39:02.075Z,99890.09
2023-04-28T18:44:03.707Z,99901.88
2023-04-28T18:49:05.550Z,99904.28
2023-04-28T18:54:07.221Z,99921.53
2023-04-28T18:59:09.525Z,99922.28
2023-04-28T19:04:11.336Z,99929.38
2023-04-28T19:09:14.379Z,99932.31
2023-04-28T19:14:16.044Z,99947.97
2023-04-28T19:19:17.708Z,99953.97
2023-04-28T19:24:19.243Z,99957.56
2023-04-28T19:29:20.797Z,99951.16
2023-04-28T19:34:22.325Z,99970.75
2023-04-28T19:39:23.864Z,99976.34
2023-04-28T19:44:25.421Z,99974.72
2023-04-28T19:49:26.954Z,99983.59
2023-04-28T19:54:28.497Z,99979.50
2023-04-28T19:59:30.039Z,99987.00
2023-04-28T20:04:32.035Z,99988.13
2023-04-28T20:09:37.815Z,99995.84
2023-04-28T20:14:39.389Z,99996.66
2023-04-28T20:19:40.961Z,99985.31
2023-04-28T20:24:42.490Z,99990.13
2023-04-28T20:29:44.064Z,99988.41
2023-04-28T20:34:45.814Z,99987.69
2023-04-28T20:39:48.665Z,99990.28
2023-04-28T20:44:50.938Z,100003.00
2023-04-28T20:49:52.875Z,100004.25
2023-04-28T20:54:55.043Z,100001.34
2023-04-28T20:59:56.576Z,100018.84
2023-04-28T21:04:58.260Z,100023.88
2023-04-28T21:09:59.789Z,100016.88
2023-04-28T21:15:01.617Z,100015.97
2023-04-28T21:20:03.597Z,100030.47
2023-04-28T21:25:08.377Z,100026.50
2023-04-28T21:30:11.782Z,100023.91
2023-04-28T21:35:13.700Z,100032.91
2023-04-28T21:40:16.248Z,100035.56
2023-04-28T21:45:18.750Z,100039.09
2023-04-28T21:50:20.326Z,100046.75
2023-04-28T21:55:21.904Z,100051.44
2023-04-28T22:00:23.952Z,100046.94
2023-04-28T22:05:25.684Z,100050.16
2023-04-28T22:10:27.415Z,100053.91
2023-04-28T22:15:28.971Z,100049.91
2023-04-28T22:20:30.730Z,100041.59
2023-04-28T22:25:32.385Z,100051.41
2023-04-28T22:30:34.250Z,100050.91
2023-04-28T22:35:35.837Z,100057.25
2023-04-28T22:40:37.494Z,100056.50
2023-04-28T22:45:39.147Z,100058.66
2023-04-28T22:50:41.079Z,100060.06
2023-04-28T22:55:43.519Z,100060.88
2023-04-28T23:00:45.306Z,100060.88
2023-04-28T23:05:47.582Z,100063.06
2023-04-28T23:10:49.491Z,100058.56
2023-04-28T23:15:51.234Z,100052.72
2023-04-28T23:20:52.881Z,100068.56
2023-04-28T23:25:55.627Z,100073.88
2023-04-28T23:30:57.196Z,100078.03
2023-04-28T23:36:01.101Z,100086.78
2023-04-28T23:41:06.404Z,100091.75
2023-04-28T23:46:08.088Z,100096.88
2023-04-28T23:51:09.928Z,100093.78
2023-04-28T23:56:11.475Z,100093.78
